This is the latest recevied weather packets stored in our database for station/object SV9TNF-1. If no packets are shown the sender has not sent any weather packets the latest 10 day(s).
| Time | Temp. | Humidity | Pressure | Rain* | Wind** | Luminosity | Snow |
|---|---|---|---|---|---|---|---|
| 1778260157 | 22.78° C | 44% | 1003.1 hPa | 0 mm | 0.45 m/s, 136° | - | - |
| 1778259860 | 23.33° C | 43% | 1003.1 hPa | 0 mm | 3.13 m/s, 359° | - | - |
| 1778259556 | 23.33° C | 41% | 1003.1 hPa | 0 mm | 4.02 m/s, 181° | - | - |
| 1778259257 | 23.33° C | 43% | 1003.1 hPa | 0 mm | 2.68 m/s, 298° | - | - |
| 1778258956 | 23.33° C | 39% | 1003.1 hPa | 0 mm | 1.34 m/s, 131° | - | - |
| 1778258656 | 23.33° C | 39% | 1002.4 hPa | 0 mm | 0.89 m/s, 140° | - | - |
| 1778258356 | 23.33° C | 43% | 1002.4 hPa | 0 mm | 0.89 m/s, 109° | - | - |
| 1778258056 | 23.33° C | 42% | 1002.4 hPa | 0 mm | 3.58 m/s, 121° | - | - |
| 1778257756 | 23.33° C | 44% | 1002.4 hPa | 0 mm | 1.34 m/s, 115° | - | - |
| 1778257456 | 23.89° C | 41% | 1002.4 hPa | 0 mm | 1.79 m/s, 113° | - | - |
| 1778257156 | 23.89° C | 38% | 1002.4 hPa | 0 mm | 3.58 m/s, 131° | - | - |
| 1778256856 | 24.44° C | 36% | 1002.4 hPa | 0 mm | 4.92 m/s, 136° | - | - |
| 1778256555 | 23.89° C | 35% | 1003.1 hPa | 0 mm | 7.15 m/s, 120° | - | - |
| 1778256255 | 23.89° C | 36% | 1003.1 hPa | 0 mm | 7.15 m/s, 105° | - | - |
| 1778255791 | 23.33° C | 36% | 1003.1 hPa | 0 mm | 6.71 m/s, 113° | - | - |
| 1778255491 | 23.33° C | 40% | 1003.1 hPa | 0 mm | 2.68 m/s, 94° | - | - |
| 1778255190 | 22.78° C | 46% | 1003.1 hPa | 0 mm | 6.26 m/s, 83° | - | - |
| 1778254890 | 22.22° C | 50% | 1003.1 hPa | 0 mm | 2.68 m/s, 90° | - | - |
| 1778254590 | 21.11° C | 60% | 1003.1 hPa | 0 mm | 5.81 m/s, 90° | - | - |
| 1778254290 | 20.56° C | 69% | 1003.4 hPa | 0 mm | 4.02 m/s, 104° | - | - |
| 1778253990 | 20.56° C | 71% | 1003.4 hPa | 0 mm | 4.47 m/s, 128° | - | - |
| 1778253689 | 20.56° C | 71% | 1003.7 hPa | 0 mm | 4.92 m/s, 80° | - | - |
| 1778253390 | 20.56° C | 76% | 1003.7 hPa | 0 mm | 4.02 m/s, 84° | - | - |
| 1778252790 | 20° C | 75% | 1004.1 hPa | 0 mm | 5.36 m/s, 94° | - | - |
| 1778252489 | 20° C | 77% | 1004.1 hPa | 0 mm | 11.18 m/s, 109° | - | - |
* Rain latest hour (hover to see other rain measurements)
** Current wind speed in m/s (hover to see current wind gust speed)